createdAt,value
2023-03-08T00:01:26.115Z,3.93
2023-03-08T00:03:58.248Z,4.00
2023-03-08T00:06:28.200Z,3.77
2023-03-08T00:08:58.019Z,5.13
2023-03-08T00:11:27.417Z,4.43
2023-03-08T00:13:56.044Z,2.53
2023-03-08T00:16:24.999Z,4.50
2023-03-08T00:18:53.173Z,3.53
2023-03-08T00:21:22.828Z,7.80
2023-03-08T00:23:54.052Z,8.60
2023-03-08T00:26:22.256Z,5.80
2023-03-08T00:28:50.473Z,3.87
2023-03-08T00:31:18.685Z,3.87
2023-03-08T00:33:46.840Z,3.50
2023-03-08T00:36:18.322Z,3.90
2023-03-08T00:38:51.032Z,6.10
2023-03-08T00:41:19.838Z,7.10
2023-03-08T00:43:48.174Z,6.93
2023-03-08T00:46:17.011Z,5.87
2023-03-08T00:48:45.212Z,4.77
2023-03-08T00:51:16.624Z,5.70
2023-03-08T00:53:44.952Z,7.70
2023-03-08T00:56:15.114Z,4.87
2023-03-08T00:58:44.122Z,6.13
2023-03-08T01:01:17.152Z,6.43
2023-03-08T01:03:45.564Z,5.77
2023-03-08T01:06:16.290Z,6.57
2023-03-08T01:08:45.680Z,6.77
2023-03-08T01:11:22.110Z,8.40
2023-03-08T01:13:51.582Z,8.20
2023-03-08T01:16:22.619Z,6.80
2023-03-08T01:18:51.433Z,8.47
2023-03-08T01:21:19.717Z,7.43
2023-03-08T01:23:48.092Z,7.20
2023-03-08T01:26:20.943Z,7.43
2023-03-08T01:28:50.240Z,7.33
2023-03-08T01:31:21.679Z,8.17
2023-03-08T01:33:50.539Z,7.37
2023-03-08T01:36:21.755Z,8.67
2023-03-08T01:38:50.541Z,11.00
2023-03-08T01:41:23.334Z,8.90
2023-03-08T01:43:52.672Z,8.93
2023-03-08T01:46:27.324Z,11.40
2023-03-08T01:49:03.949Z,13.70
2023-03-08T01:51:40.540Z,11.50
2023-03-08T01:54:14.393Z,9.93
2023-03-08T01:56:48.366Z,11.17
2023-03-08T01:59:16.782Z,10.13
2023-03-08T02:01:45.893Z,10.03
2023-03-08T02:04:14.041Z,10.00
2023-03-08T02:06:43.903Z,9.27
2023-03-08T02:09:12.629Z,10.57
2023-03-08T02:11:44.421Z,12.10
2023-03-08T02:14:12.720Z,10.50
2023-03-08T02:16:40.809Z,11.20
2023-03-08T02:19:21.273Z,11.33
2023-03-08T02:21:49.336Z,8.97
2023-03-08T02:24:23.464Z,10.67
2023-03-08T02:26:57.719Z,9.70
2023-03-08T02:29:25.830Z,9.37
2023-03-08T02:31:54.001Z,11.50
2023-03-08T02:34:22.115Z,11.37
2023-03-08T02:36:50.258Z,11.70
2023-03-08T02:39:19.721Z,12.87
2023-03-08T02:41:47.842Z,12.43
2023-03-08T02:44:16.001Z,10.93
2023-03-08T02:46:44.268Z,10.77
2023-03-08T02:49:12.370Z,11.63
2023-03-08T02:51:40.562Z,10.53
2023-03-08T02:54:08.752Z,11.87
2023-03-08T02:56:38.433Z,9.83
2023-03-08T02:59:06.889Z,9.13
2023-03-08T03:01:35.088Z,11.67
2023-03-08T03:04:03.589Z,11.27
2023-03-08T03:06:31.752Z,10.17
2023-03-08T03:08:59.889Z,12.17
2023-03-08T03:11:27.959Z,12.40
2023-03-08T03:14:00.676Z,10.83
2023-03-08T03:16:29.521Z,12.27
2023-03-08T03:18:58.162Z,14.57
2023-03-08T03:21:26.503Z,12.57
2023-03-08T03:23:56.362Z,11.53
2023-03-08T03:26:26.855Z,11.93
2023-03-08T03:29:00.288Z,10.00
2023-03-08T03:31:29.888Z,9.97
2023-03-08T03:33:58.854Z,10.03
2023-03-08T03:36:27.132Z,9.70
2023-03-08T03:38:55.299Z,9.07
2023-03-08T03:41:24.547Z,8.10
2023-03-08T03:43:53.145Z,8.60
2023-03-08T03:46:23.259Z,10.27
2023-03-08T03:48:51.652Z,9.97
2023-03-08T03:51:22.863Z,8.63
2023-03-08T03:53:51.445Z,8.60
2023-03-08T03:56:22.265Z,10.03
2023-03-08T03:58:51.672Z,7.93
2023-03-08T04:01:25.157Z,7.00
2023-03-08T04:03:54.972Z,8.30
2023-03-08T04:06:26.970Z,9.60
2023-03-08T04:08:57.071Z,7.33
2023-03-08T04:11:29.081Z,7.57
2023-03-08T04:13:57.444Z,10.20
2023-03-08T04:16:30.024Z,8.90
2023-03-08T04:19:00.551Z,9.80
2023-03-08T04:21:30.346Z,9.57
2023-03-08T04:24:00.724Z,9.53
2023-03-08T04:26:29.333Z,9.70
2023-03-08T04:28:57.819Z,8.93
2023-03-08T04:31:30.294Z,11.23
2023-03-08T04:33:59.189Z,10.50
2023-03-08T04:36:27.510Z,13.03
2023-03-08T04:38:55.642Z,9.83
2023-03-08T04:41:24.214Z,12.30
2023-03-08T04:43:54.768Z,9.93
2023-03-08T04:46:27.394Z,7.67
2023-03-08T04:48:56.471Z,7.43
2023-03-08T04:51:27.177Z,8.63
2023-03-08T04:53:55.360Z,7.93
2023-03-08T04:56:23.896Z,7.13
2023-03-08T04:58:52.064Z,7.47
2023-03-08T05:01:23.251Z,7.37
2023-03-08T05:03:53.899Z,7.70
2023-03-08T05:06:24.553Z,9.33
2023-03-08T05:08:52.687Z,9.17
2023-03-08T05:11:23.707Z,9.37
2023-03-08T05:13:53.764Z,10.50
2023-03-08T05:16:22.460Z,9.27
2023-03-08T05:18:52.047Z,7.43
2023-03-08T05:21:23.105Z,6.97
2023-03-08T05:23:51.428Z,8.43
2023-03-08T05:26:20.228Z,9.53
2023-03-08T05:28:48.361Z,8.63
2023-03-08T05:31:19.103Z,7.03
2023-03-08T05:33:51.008Z,8.67
2023-03-08T05:36:21.477Z,8.53
2023-03-08T05:38:53.474Z,11.13
2023-03-08T05:41:22.033Z,9.30
2023-03-08T05:43:50.253Z,9.80
2023-03-08T05:46:20.756Z,10.13
2023-03-08T05:48:49.151Z,8.40
2023-03-08T05:51:20.652Z,8.83
2023-03-08T05:53:48.808Z,8.83
2023-03-08T05:56:19.877Z,9.70
2023-03-08T05:58:48.610Z,8.90
2023-03-08T06:01:19.868Z,8.80
2023-03-08T06:03:50.285Z,9.10
2023-03-08T06:06:21.761Z,7.73
2023-03-08T06:08:50.651Z,9.33
2023-03-08T06:11:20.033Z,9.33
2023-03-08T06:13:48.261Z,8.40
2023-03-08T06:16:16.870Z,7.63
2023-03-08T06:18:45.382Z,10.87
2023-03-08T06:21:15.937Z,9.53
2023-03-08T06:23:47.222Z,9.20
2023-03-08T06:26:16.897Z,9.47
2023-03-08T06:28:45.093Z,9.23
2023-03-08T06:31:16.854Z,9.80
2023-03-08T06:33:45.031Z,10.83
2023-03-08T06:36:16.005Z,10.10
2023-03-08T06:38:46.345Z,9.00
2023-03-08T06:41:16.462Z,9.77
2023-03-08T06:43:44.752Z,8.97
2023-03-08T06:46:16.914Z,9.40
2023-03-08T06:48:46.204Z,10.47
2023-03-08T06:51:14.673Z,11.40
2023-03-08T06:53:42.832Z,10.83
2023-03-08T06:56:15.661Z,11.10
2023-03-08T06:58:44.364Z,12.20
2023-03-08T07:01:14.757Z,10.50
2023-03-08T07:03:45.261Z,9.13
2023-03-08T07:06:14.168Z,9.10
2023-03-08T07:08:43.072Z,9.83
2023-03-08T07:11:12.992Z,8.90
2023-03-08T07:13:41.457Z,9.00
2023-03-08T07:16:11.926Z,10.80
2023-03-08T07:18:41.181Z,9.30
2023-03-08T07:21:10.963Z,9.00
2023-03-08T07:23:39.385Z,12.50
2023-03-08T07:26:07.946Z,9.40
2023-03-08T07:28:37.697Z,9.90
2023-03-08T07:31:06.452Z,9.97
2023-03-08T07:33:34.667Z,9.17
2023-03-08T07:36:03.031Z,9.73
2023-03-08T07:38:31.406Z,10.20
2023-03-08T07:40:59.650Z,8.13
2023-03-08T07:43:27.829Z,9.17
2023-03-08T07:46:01.346Z,8.57
2023-03-08T07:48:30.417Z,9.60
2023-03-08T07:51:03.660Z,9.50
2023-03-08T07:53:32.521Z,9.20
2023-03-08T07:56:01.116Z,8.70
2023-03-08T07:58:30.052Z,7.53
2023-03-08T08:00:59.517Z,8.57
2023-03-08T08:03:27.686Z,8.83
2023-03-08T08:05:55.842Z,8.50
2023-03-08T08:08:23.996Z,8.97
2023-03-08T08:10:52.111Z,7.67
2023-03-08T08:13:20.245Z,7.23
2023-03-08T08:15:48.542Z,7.87
2023-03-08T08:18:18.268Z,6.43
2023-03-08T08:20:46.639Z,7.57
2023-03-08T08:23:14.787Z,10.23
2023-03-08T08:25:46.563Z,8.73
2023-03-08T08:28:15.399Z,8.67
2023-03-08T08:30:43.556Z,8.23
2023-03-08T08:33:11.650Z,7.60
2023-03-08T08:35:43.631Z,7.53
2023-03-08T08:38:11.900Z,7.80
2023-03-08T08:40:40.013Z,8.33
2023-03-08T08:43:08.162Z,7.93
2023-03-08T08:45:36.382Z,8.30
2023-03-08T08:48:05.812Z,6.83
2023-03-08T08:50:34.140Z,8.73
2023-03-08T08:53:03.660Z,7.20
2023-03-08T08:55:31.935Z,8.87
2023-03-08T08:58:00.220Z,9.40
2023-03-08T09:00:28.541Z,7.70
2023-03-08T09:02:56.706Z,6.73
2023-03-08T09:05:25.106Z,7.47
2023-03-08T09:07:55.356Z,7.80
2023-03-08T09:10:25.461Z,7.07
2023-03-08T09:12:53.672Z,9.93
2023-03-08T09:15:23.104Z,7.97
2023-03-08T09:17:51.797Z,7.27
2023-03-08T09:20:22.963Z,6.67
2023-03-08T09:22:51.946Z,7.63
2023-03-08T09:25:23.980Z,7.43
2023-03-08T09:27:53.943Z,9.93
2023-03-08T09:30:22.430Z,9.37
2023-03-08T09:32:50.659Z,6.87
2023-03-08T09:35:19.078Z,6.50
2023-03-08T09:37:47.162Z,7.23
2023-03-08T09:40:25.952Z,7.30
2023-03-08T09:43:05.479Z,7.53
2023-03-08T09:45:35.003Z,6.07
2023-03-08T09:48:13.494Z,6.50
2023-03-08T09:50:50.763Z,9.17
2023-03-08T09:53:28.261Z,7.60
2023-03-08T09:56:02.895Z,9.33
2023-03-08T09:58:41.876Z,9.07
2023-03-08T10:01:33.699Z,7.43
2023-03-08T10:04:29.645Z,8.43
2023-03-08T10:07:20.318Z,9.10
2023-03-08T10:10:03.196Z,8.30
2023-03-08T10:12:45.369Z,8.37
2023-03-08T10:15:20.483Z,9.30
2023-03-08T10:17:56.646Z,9.77
2023-03-08T10:20:29.921Z,9.37
2023-03-08T10:23:02.902Z,9.70
2023-03-08T10:25:34.257Z,10.03
2023-03-08T10:28:10.810Z,9.13
2023-03-08T10:30:46.750Z,7.37
2023-03-08T10:33:19.513Z,7.47
2023-03-08T10:36:02.158Z,7.83
2023-03-08T10:38:33.934Z,6.90
2023-03-08T10:41:04.482Z,8.53
2023-03-08T10:43:37.220Z,8.07
2023-03-08T10:46:15.823Z,8.93
2023-03-08T10:48:44.123Z,7.53
2023-03-08T10:51:19.010Z,8.40
2023-03-08T10:53:56.024Z,8.13
2023-03-08T10:56:31.057Z,8.07
2023-03-08T10:59:00.074Z,11.07
2023-03-08T11:01:33.422Z,8.17
2023-03-08T11:04:05.838Z,8.23
2023-03-08T11:06:36.698Z,6.80
2023-03-08T11:09:20.193Z,6.67
2023-03-08T11:11:48.309Z,4.00
2023-03-08T11:14:17.617Z,5.77
2023-03-08T11:17:07.372Z,3.90
2023-03-08T11:19:59.702Z,4.53
2023-03-08T11:22:46.517Z,3.53
2023-03-08T11:25:37.631Z,4.50
2023-03-08T11:28:27.594Z,4.57
2023-03-08T11:31:15.005Z,4.13
2023-03-08T11:34:06.130Z,5.50
2023-03-08T11:36:43.086Z,4.30
2023-03-08T11:39:27.739Z,4.70
2023-03-08T11:42:07.663Z,5.33
2023-03-08T11:45:16.139Z,5.23
2023-03-08T11:48:17.196Z,5.23
2023-03-08T11:50:54.594Z,5.17
2023-03-08T11:53:38.631Z,4.87
2023-03-08T11:56:36.171Z,6.57
2023-03-08T11:59:16.517Z,6.73
2023-03-08T12:01:51.209Z,6.83
2023-03-08T12:04:26.043Z,7.20
2023-03-08T12:06:56.451Z,8.37
2023-03-08T12:09:34.143Z,7.03
2023-03-08T12:12:09.134Z,9.07
2023-03-08T12:14:50.308Z,8.97
2023-03-08T12:17:25.647Z,8.97
2023-03-08T12:19:54.020Z,9.37
2023-03-08T12:22:46.093Z,9.47
2023-03-08T12:25:27.227Z,13.33
2023-03-08T12:28:03.855Z,11.07
2023-03-08T12:30:51.605Z,10.13
2023-03-08T12:33:20.700Z,9.50
2023-03-08T12:35:55.290Z,11.93
2023-03-08T12:38:48.803Z,11.77
2023-03-08T12:41:26.911Z,10.30
2023-03-08T12:44:05.282Z,10.37
2023-03-08T12:47:01.815Z,10.47
2023-03-08T12:49:35.519Z,10.50
2023-03-08T12:52:08.357Z,9.03
2023-03-08T12:54:37.866Z,11.90
2023-03-08T12:57:22.375Z,9.20
2023-03-08T12:59:59.368Z,10.03
2023-03-08T13:02:31.653Z,9.83
2023-03-08T13:05:19.721Z,9.93
2023-03-08T13:08:24.307Z,11.07
2023-03-08T13:11:06.846Z,11.53
2023-03-08T13:13:50.611Z,11.47
2023-03-08T13:16:33.345Z,9.43
2023-03-08T13:19:27.348Z,9.93
2023-03-08T13:22:13.815Z,9.70
2023-03-08T13:24:48.401Z,8.53
2023-03-08T13:27:41.712Z,8.43
2023-03-08T13:30:25.119Z,9.70
2023-03-08T13:32:53.814Z,9.57
2023-03-08T13:35:22.982Z,9.37
2023-03-08T13:37:57.480Z,9.97
2023-03-08T13:40:26.823Z,9.43
2023-03-08T13:42:59.004Z,11.83
2023-03-08T13:45:28.199Z,9.70
2023-03-08T13:48:00.146Z,9.63
2023-03-08T13:50:32.938Z,11.30
2023-03-08T13:53:04.787Z,10.83
2023-03-08T13:55:39.597Z,10.43
2023-03-08T13:58:26.473Z,10.00
2023-03-08T14:01:04.250Z,9.73
2023-03-08T14:03:34.329Z,12.40
2023-03-08T14:06:02.627Z,10.97
2023-03-08T14:08:31.255Z,11.03
2023-03-08T14:11:04.183Z,10.83
2023-03-08T14:13:36.427Z,10.20
2023-03-08T14:16:07.803Z,10.40
2023-03-08T14:18:40.147Z,12.53
2023-03-08T14:21:16.300Z,12.50
2023-03-08T14:23:49.217Z,11.80
2023-03-08T14:26:33.789Z,11.20
2023-03-08T14:29:19.601Z,13.43
2023-03-08T14:32:02.637Z,11.93
2023-03-08T14:34:35.913Z,12.27
2023-03-08T14:37:08.998Z,12.93
2023-03-08T14:39:39.977Z,13.27
2023-03-08T14:42:23.252Z,11.70
2023-03-08T14:44:57.726Z,11.70
2023-03-08T14:47:29.420Z,13.37
2023-03-08T14:50:03.656Z,11.80
2023-03-08T14:52:35.942Z,15.40
2023-03-08T14:55:05.164Z,14.63
2023-03-08T14:57:33.255Z,13.07
2023-03-08T15:00:15.423Z,13.13
2023-03-08T15:02:44.728Z,14.73
2023-03-08T15:05:28.452Z,13.80
2023-03-08T15:07:59.237Z,13.17
2023-03-08T15:10:31.598Z,14.67
2023-03-08T15:13:00.557Z,15.80
2023-03-08T15:15:30.363Z,15.00
2023-03-08T15:17:58.458Z,13.03
2023-03-08T15:20:26.601Z,13.43
2023-03-08T15:23:00.218Z,13.10
2023-03-08T15:25:31.829Z,13.03
2023-03-08T15:27:59.908Z,15.10
2023-03-08T15:30:31.889Z,13.60
2023-03-08T15:33:01.278Z,15.43
2023-03-08T15:35:30.517Z,13.40
2023-03-08T15:37:58.674Z,13.57
2023-03-08T15:40:29.609Z,15.20
2023-03-08T15:42:58.022Z,13.37
2023-03-08T15:45:26.438Z,15.43
2023-03-08T15:48:01.416Z,14.30
2023-03-08T15:50:30.911Z,15.37
2023-03-08T15:52:59.976Z,16.23
2023-03-08T15:55:31.475Z,14.97
2023-03-08T15:58:00.193Z,15.10
2023-03-08T16:00:29.117Z,13.97
2023-03-08T16:02:59.044Z,15.07
2023-03-08T16:05:28.714Z,15.10
2023-03-08T16:07:59.337Z,15.00
2023-03-08T16:10:29.538Z,16.80
2023-03-08T16:12:58.299Z,15.30
2023-03-08T16:15:26.418Z,16.23
2023-03-08T16:17:55.233Z,15.97
2023-03-08T16:20:25.817Z,15.87
2023-03-08T16:22:54.944Z,14.87
2023-03-08T16:25:23.734Z,15.77
2023-03-08T16:27:53.087Z,15.80
2023-03-08T16:30:21.754Z,15.63
2023-03-08T16:32:53.311Z,14.97
2023-03-08T16:35:22.346Z,15.30
2023-03-08T16:37:54.672Z,15.53
2023-03-08T16:40:23.034Z,14.77
2023-03-08T16:42:52.504Z,16.53
2023-03-08T16:45:20.728Z,17.67
2023-03-08T16:47:48.788Z,16.43
2023-03-08T16:50:17.357Z,18.37
2023-03-08T16:52:45.501Z,19.97
2023-03-08T16:55:15.513Z,17.47
2023-03-08T16:57:43.618Z,19.03
2023-03-08T17:00:14.166Z,17.97
2023-03-08T17:02:43.667Z,20.13
2023-03-08T17:05:13.891Z,18.47
2023-03-08T17:07:42.012Z,17.73
2023-03-08T17:10:11.971Z,21.87
2023-03-08T17:12:41.519Z,20.13
2023-03-08T17:15:11.424Z,18.73
2023-03-08T17:17:40.206Z,20.43
2023-03-08T17:20:10.390Z,20.13
2023-03-08T17:22:38.500Z,20.80
2023-03-08T17:25:08.509Z,21.70
2023-03-08T17:27:36.682Z,22.07
2023-03-08T17:30:07.984Z,21.37
2023-03-08T17:32:36.126Z,19.87
2023-03-08T17:35:05.403Z,21.00
2023-03-08T17:37:33.483Z,23.43
2023-03-08T17:40:01.600Z,21.47
2023-03-08T17:42:29.669Z,23.93
2023-03-08T17:44:58.008Z,22.93
2023-03-08T17:47:27.475Z,23.90
2023-03-08T17:49:55.606Z,23.23
2023-03-08T17:52:23.707Z,21.90
2023-03-08T17:54:51.810Z,21.63
2023-03-08T17:57:20.482Z,20.43
2023-03-08T17:59:48.741Z,22.73
2023-03-08T18:02:17.587Z,21.53
2023-03-08T18:04:49.941Z,23.03
2023-03-08T18:07:20.932Z,21.30
2023-03-08T18:09:49.554Z,22.47
2023-03-08T18:12:17.702Z,21.43
2023-03-08T18:14:47.247Z,21.63
2023-03-08T18:17:15.338Z,22.17
2023-03-08T18:19:43.426Z,22.53
2023-03-08T18:22:13.490Z,24.07
2023-03-08T18:24:42.257Z,25.70
2023-03-08T18:27:10.437Z,26.23
2023-03-08T18:29:39.248Z,23.93
2023-03-08T18:32:08.393Z,23.40
2023-03-08T18:34:37.933Z,24.33
2023-03-08T18:37:06.342Z,24.57
2023-03-08T18:39:35.776Z,23.40
2023-03-08T18:42:03.846Z,23.10
2023-03-08T18:44:31.915Z,25.37
2023-03-08T18:47:00.524Z,23.27
2023-03-08T18:49:28.670Z,25.03
2023-03-08T18:51:57.341Z,24.73
2023-03-08T18:54:25.437Z,24.87
2023-03-08T18:56:55.275Z,22.53
2023-03-08T18:59:24.214Z,24.67
2023-03-08T19:01:53.938Z,24.33
2023-03-08T19:04:23.064Z,25.03
2023-03-08T19:06:51.635Z,21.63
2023-03-08T19:09:21.640Z,25.07
2023-03-08T19:11:49.759Z,23.83
2023-03-08T19:14:19.247Z,21.87
2023-03-08T19:16:47.402Z,19.67
2023-03-08T19:19:18.027Z,21.70
2023-03-08T19:21:48.801Z,22.43
2023-03-08T19:24:20.301Z,20.97
2023-03-08T19:26:52.505Z,21.50
2023-03-08T19:29:24.608Z,21.60
2023-03-08T19:31:55.865Z,23.70
2023-03-08T19:34:27.268Z,24.30
2023-03-08T19:36:55.833Z,21.13
2023-03-08T19:39:27.497Z,22.87
2023-03-08T19:41:58.982Z,20.60
2023-03-08T19:44:29.279Z,22.47
2023-03-08T19:46:57.733Z,22.43
2023-03-08T19:49:30.584Z,20.93
2023-03-08T19:52:01.697Z,24.17
2023-03-08T19:54:31.585Z,22.00
2023-03-08T19:57:01.072Z,20.17
2023-03-08T19:59:30.888Z,22.53
2023-03-08T20:01:59.806Z,24.33
2023-03-08T20:04:29.214Z,22.97
2023-03-08T20:07:00.800Z,22.37
2023-03-08T20:09:29.110Z,21.53
2023-03-08T20:11:59.060Z,20.93
2023-03-08T20:14:29.690Z,20.67
2023-03-08T20:16:59.401Z,21.33
2023-03-08T20:19:30.290Z,20.43
2023-03-08T20:21:58.639Z,22.00
2023-03-08T20:24:26.719Z,22.13
2023-03-08T20:26:55.006Z,21.73
2023-03-08T20:29:23.303Z,22.30
2023-03-08T20:31:52.717Z,19.53
2023-03-08T20:34:20.922Z,17.37
2023-03-08T20:36:48.966Z,21.63
2023-03-08T20:39:18.168Z,21.13
2023-03-08T20:41:46.263Z,18.30
2023-03-08T20:44:14.337Z,16.73
2023-03-08T20:46:42.564Z,20.97
2023-03-08T20:49:12.406Z,19.97
2023-03-08T20:51:40.541Z,18.90
2023-03-08T20:54:08.633Z,19.03
2023-03-08T20:56:36.822Z,18.33
2023-03-08T20:59:05.232Z,19.70
2023-03-08T21:01:34.030Z,19.27
2023-03-08T21:04:02.305Z,19.70
2023-03-08T21:06:32.901Z,19.83
2023-03-08T21:09:01.555Z,19.07
2023-03-08T21:11:30.244Z,19.23
2023-03-08T21:13:58.441Z,17.53
2023-03-08T21:16:29.342Z,19.03
2023-03-08T21:19:00.844Z,20.43
2023-03-08T21:21:36.521Z,19.93
2023-03-08T21:24:07.501Z,18.73
2023-03-08T21:26:36.221Z,19.70
2023-03-08T21:29:07.833Z,20.70
2023-03-08T21:31:40.581Z,20.07
2023-03-08T21:34:09.649Z,21.40
2023-03-08T21:36:40.308Z,18.40
2023-03-08T21:39:10.030Z,19.43
2023-03-08T21:41:41.150Z,20.47
2023-03-08T21:44:13.776Z,17.70
2023-03-08T21:46:42.470Z,17.63
2023-03-08T21:49:19.207Z,17.20
2023-03-08T21:51:48.810Z,15.73
2023-03-08T21:54:17.910Z,17.93
2023-03-08T21:56:46.057Z,15.37
2023-03-08T21:59:24.190Z,15.13
2023-03-08T22:01:54.072Z,14.83
2023-03-08T22:04:22.726Z,13.10
2023-03-08T22:06:52.381Z,14.07
2023-03-08T22:09:20.546Z,15.30
2023-03-08T22:11:48.699Z,14.37
2023-03-08T22:14:16.809Z,13.17
2023-03-08T22:16:45.024Z,16.00
2023-03-08T22:19:13.172Z,14.40
2023-03-08T22:21:41.316Z,14.63
2023-03-08T22:24:11.631Z,14.03
2023-03-08T22:26:39.763Z,13.53
2023-03-08T22:29:08.001Z,14.30
2023-03-08T22:31:36.171Z,12.30
2023-03-08T22:34:04.702Z,14.03
2023-03-08T22:36:32.801Z,13.90
2023-03-08T22:39:01.151Z,12.90
2023-03-08T22:41:31.576Z,14.57
2023-03-08T22:44:02.679Z,13.50
2023-03-08T22:46:31.412Z,14.23
2023-03-08T22:49:04.591Z,13.67
2023-03-08T22:51:34.421Z,13.70
2023-03-08T22:54:04.017Z,12.87
2023-03-08T22:56:34.174Z,14.27
2023-03-08T22:59:03.148Z,12.73
2023-03-08T23:01:33.585Z,13.30
2023-03-08T23:04:03.931Z,15.80
2023-03-08T23:06:33.287Z,16.17
2023-03-08T23:09:06.122Z,14.30
2023-03-08T23:11:37.952Z,16.63
2023-03-08T23:14:07.031Z,14.83
2023-03-08T23:16:36.969Z,17.57
2023-03-08T23:19:05.813Z,14.77
2023-03-08T23:21:35.736Z,14.43
2023-03-08T23:24:03.974Z,16.60
2023-03-08T23:26:32.705Z,15.70
2023-03-08T23:29:04.459Z,16.20
2023-03-08T23:31:36.043Z,17.43
2023-03-08T23:34:06.540Z,16.80
2023-03-08T23:36:35.373Z,14.77
2023-03-08T23:39:04.229Z,19.10
2023-03-08T23:41:33.719Z,17.17
2023-03-08T23:44:04.373Z,16.97
2023-03-08T23:46:33.096Z,16.70
2023-03-08T23:49:02.478Z,15.70
2023-03-08T23:51:33.968Z,19.07
2023-03-08T23:54:03.642Z,17.47
2023-03-08T23:56:37.894Z,18.33
2023-03-08T23:59:18.372Z,17.33
